KSGR

Sugar Land Regional Airport

Houston, Texas, USA
KSGR 181738Z 1818/1918 15009KT 6SM BR BKN008 TEMPO 1818/1820 3SM BR OVC003 FM182000 19013G23KT P6SM VCSH OVC015 FM190800 23013G23KT P6SM VCTS BKN015CB OVC025 FM191200 31018G28KT P6SM BKN025 OVC035 FM191600 32019G29KT P6SM SCT030
Issued Valid From Valid To
Jan-18 @ 17:38 UTC
(3 hours ago)
Jan-18 @ 18:00 UTC
(2 hours ago)
Jan-19 @ 18:00 UTC
(in 22 hours)
Expired Click to View Jan-18 @ 18:00 to Jan-18 @ 20:00
KSGR 181738Z 1818/1918 15009KT 6SM BR BKN008
Wind Visibility Clouds Conditions
150° at 9 knots 6 miles
  • Broken at 800' AGL
  • Mist
Expired Click to View Jan-18 @ 18:00 to Jan-18 @ 20:00
TEMPO 1818/1820 3SM BR OVC003
Visibility Clouds Conditions
3 miles
  • Overcast at 300' AGL
  • Mist
From Jan-18 @ 20:00 to Jan-19 @ 08:00
FM182000 19013G23KT P6SM VCSH OVC015
Wind Visibility Clouds
190° at 13 knots
 Gusting to 23 knots
Greater than 6 miles
  • Overcast at 1,500' AGL
From Jan-19 @ 08:00 to Jan-19 @ 12:00
FM190800 23013G23KT P6SM VCTS BKN015CB OVC025
Wind Visibility Clouds Conditions
230° at 13 knots
 Gusting to 23 knots
Greater than 6 miles
  • Broken at 1,500' AGL
  • Overcast at 2,500' AGL
  • Area Thunderstorm
From Jan-19 @ 12:00 to Jan-19 @ 16:00
FM191200 31018G28KT P6SM BKN025 OVC035
Wind Visibility Clouds
310° at 18 knots
 Gusting to 28 knots
Greater than 6 miles
  • Broken at 2,500' AGL
  • Overcast at 3,500' AGL
From Jan-19 @ 16:00 to Jan-19 @ 18:00
FM191600 32019G29KT P6SM SCT030
Wind Visibility Clouds
320° at 19 knots
 Gusting to 29 knots
Greater than 6 miles
  • Scattered at 3,000' AGL
KSGR 181738Z 1818/1918 15009KT 6SM BR BKN008 TEMPO 1818/1820 3SM BR OVC003 FM182000 19013G23KT P6SM VCSH OVC015 FM190800 23013G23KT P6SM VCTS BKN015CB OVC025 FM191200 31018G28KT P6SM BKN025 OVC035 FM191600 32019G29KT P6SM SCT030
Issued Jan-18 @ 17:38 UTC
(3 hours ago)
Valid From Jan-18 @ 18:00 UTC
(2 hours ago)
Valid To Jan-19 @ 18:00 UTC
(in 22 hours)
Jan-18 @ 18:00 - Jan-18 @ 20:00
Wind Visibility
150° at 9 knots 6 miles
Clouds
  • Broken at 800' AGL
Conditions
  • Mist
Jan-18 @ 18:00 - Jan-18 @ 20:00
Clouds
  • Overcast at 300' AGL
Conditions
  • Mist
From Jan-18 @ 20:00 - Jan-19 @ 08:00
Wind Visibility
190° at 13 knots
 Gusting to 23 knots
Greater than 6 miles
Clouds
  • Overcast at 1,500' AGL
From Jan-19 @ 08:00 - Jan-19 @ 12:00
Wind Visibility
230° at 13 knots
 Gusting to 23 knots
Greater than 6 miles
Clouds
  • Broken at 1,500' AGL
  • Overcast at 2,500' AGL
Conditions
  • Area Thunderstorm
From Jan-19 @ 12:00 - Jan-19 @ 16:00
Wind Visibility
310° at 18 knots
 Gusting to 28 knots
Greater than 6 miles
Clouds
  • Broken at 2,500' AGL
  • Overcast at 3,500' AGL
From Jan-19 @ 16:00 - Jan-19 @ 18:00
Wind Visibility
320° at 19 knots
 Gusting to 29 knots
Greater than 6 miles
Clouds
  • Scattered at 3,000' AGL